AirNav   Pilot Hours Calculator
 
 841 users online  

MI57 Eagle Heliport
Romeo, Michigan, USA

GOING TO ROMEO?


FAA INFORMATION EFFECTIVE 02 JANUARY 2020

Location

FAA Identifier: MI57
Lat/Long: 42-47-35.0000N 083-01-34.0000W
42-47.583333N 083-01.566667W
42.7930556,-83.0261111
(estimated)
Elevation: 605 ft. / 184 m (estimated)
From city: 1 mile SW of ROMEO, MI
Time zone: UTC -5 (UTC -4 during Daylight Saving Time)
Zip code: 48095

Heliport Operations

Heliport use: Private use. Permission required prior to landing
Activation date: 09/2004
Control tower: no
ARTCC: CLEVELAND CENTER
FSS: LANSING FLIGHT SERVICE STATION
Attendance: UNATNDD
Segmented circle: no

Heliport Communications

WX AWOS-3 at VLL (16 nm SW): 119.475 (248-288-4649)
WX ASOS at PTK (19 nm SW): 125.025 (248-886-8551)
WX AWOS-3P at D95 (20 nm NW): 134.050 (810-664-5038)

Nearby radio navigation aids

VOR radial/distance  VOR name  Freq  Var
FNTr114/33.4FLINT VORTAC116.9006W
YQGr351/33.7WINDSOR VOR/DME113.8006W
SVMr050/34.1SALEM VORTAC114.3003W
DXOr029/37.9DETROIT VOR/DME113.4006W

Heliport Services

Runway Information

Helipad H1

Dimensions: 16 x 16 ft. / 5 x 5 m
Surface: concrete
Traffic pattern: leftleft

Heliport Ownership and Management from official FAA records

Ownership: Privately-owned
Owner: WILLIAM ZICHICHI
67400 ROSE DRIVE
WASHINGTON, MI 48095
Phone 586-336-0854
Manager: WILLIAM ZICHICHI
67400 ROSE DRIVE
WASHINGTON, MI 48095
Phone 586-336-0854

Additional Remarks

FOR CD CTC CLEVELAND ARTCC AT 440-774-0490.

Instrument Procedures

There are no published instrument procedures at MI57.

Some nearby airports with instrument procedures:

D98 - Romeo State Airport (2 nm E)
57D - Ray Community Airport (7 nm SE)
KMTC - Selfridge Air National Guard Base (14 nm SE)
KVLL - Oakland/Troy Airport (16 nm SW)
KPTK - Oakland County International Airport (19 nm SW)
D95 - Dupont-Lapeer Airport (20 nm NW)
 
Loc | Ops | Rwys | IFR | FBO | Links
Com | Nav | Svcs | Stats | Notes
Area around MI57 (Eagle Heliport)
 
Road maps at: MapQuest Bing Google
 
Aerial photo
No photo
 
Sectional chart

 
Airport distance calculator
Flying to Eagle Heliport? Find the distance to fly.

From to MI57

Sunrise and sunset
Times for 21-Jan-2020
 Local
(UTC-5)
 Zulu
(UTC)
Morning civil twilight07:2712:27
Sunrise07:5812:58
Sunset17:3022:30
Evening civil twilight18:0023:00

Current date and time
Zulu (UTC)  22-Jan-2020 04:09:15
Local (UTC-5)  21-Jan-2020 23:09:15
 
METAR
KMTC 
14nm SE 
220355Z 20006KT 12SM FEW200 M05/M07 A3040 RMK AO2A SLP309 T10551072
KVLL 
16nm SW 
220355Z AUTO 22006KT 10SM CLR M04/M08 A3043 RMK AO2 T10451077
KPTK 
19nm SW 
220353Z 20005KT 10SM SCT230 M06/M09 A3037 RMK AO2 SLP300 T10561094
KD95 
20nm NW 
220356Z AUTO 21005KT 10SM CLR M06/M09 A3038 RMK AO2 T10601095
KDET 
24nm S 
220353Z 23007KT 10SM CLR M05/M09 A3043 RMK AO2 SLP314 T10501089
KPHN 
24nm E 
220355Z AUTO 21004KT 10SM CLR M05/M09 A3041 RMK AO2
TAF
KMTC 
14nm SE 
220100Z 2201/2307 21009KT 9999 BKN020 QNH3031INS TEMPO 2201/2210 BKN015 BECMG 2209/2210 21009KT 9999 SCT030 QNH3021INS TEMPO 2216/2219 21012G18KT BECMG 2304/2305 20009KT 9999 BKN150 QNH3020INS TXM01/2220Z TNM07/2212Z LAST NO AMDS AFT 2204 NEXT 2209
KPTK 
19nm SW 
212120Z 2121/2218 27012KT P6SM BKN250 FM220000 26008KT P6SM BKN030 FM220200 22006KT P6SM SCT030 SCT250
NOTAMs
Click for the latest NOTAMs
NOTAMs are issued by the DoD/FAA and will open in a separate window not controlled by AirNav.

 

 
 

Would you like to see your business listed on this page?

 If your business provides an interesting product or service to pilots, flight crews, aircraft, or users of the Eagle Heliport, you should consider listing it here.  To start the listing process, click on the button below
 
Add a business
 

Other Pages about Eagle Heliport

Update a link
 
Copyright © AirNav, LLC. All rights reserved. Privacy Policy  Contact